Terminal Aerodrome Forecast
Issued by NWS

Home | Current Version | Previous Version | Text Only | Print | Product List | Glossary On
Versions: 1 2 3 4 5 6 7 8 9 10 11 12 13 14 15 16 17 18 19
534
FTUS43 KAPX 261120
TAFPLN
TAF
KPLN 261120Z 2612/2712 10011KT P6SM -SHRA OVC008
      TEMPO 2612/2613 -FZRA
     FM270100 08006KT 1 1/2SM -SHRA BR OVC006
     FM270500 00000KT 1/2SM FG VCSH OVC004
     FM270600 00000KT 3/4SM BR OVC008=

USA.gov is the U.S. government's official web portal to all federal, state and local government web resources and services.